Time;durP1;ratioP1;P1;durP2;ratioP2;P2;SDS_P1;SDS_P2;PMS_P1;PMS_P2;Temp;Humidity;BMP_temperature;BMP_pressure;BME280_temperature;BME280_humidity;BME280_pressure;Samples;Min_cycle;Max_cycle;Signal;HPM_P1;HPM_P2
2021/01/31 00:02:17;;;;;;;5.83;5.33;;;5.60;99.90;;;;;;5036610;28;20171;-55
2021/01/31 00:04:49;;;;;;;6.27;5.77;;;5.30;99.90;;;;;;5036644;28;20175;-55
2021/01/31 00:07:16;;;;;;;7.30;6.60;;;5.00;99.90;;;;;;5036257;28;20182;-53
2021/01/31 00:09:41;;;;;;;7.40;6.80;;;5.10;99.90;;;;;;5036157;28;20417;-56
2021/01/31 00:12:08;;;;;;;7.60;7.00;;;5.20;99.90;;;;;;5036143;28;20815;-56
2021/01/31 00:14:34;;;;;;;8.30;7.60;;;5.20;99.90;;;;;;5036054;28;20179;-54
2021/01/31 00:17:00;;;;;;;6.63;6.00;;;5.10;99.90;;;;;;5036501;28;20775;-54
2021/01/31 00:19:26;;;;;;;6.93;6.33;;;5.00;99.90;;;;;;5035844;28;20176;-55
2021/01/31 00:22:01;;;;;;;8.03;7.33;;;4.60;99.90;;;;;;5035584;28;21087;-55
2021/01/31 00:24:27;;;;;;;9.30;8.50;;;4.60;99.90;;;;;;5036006;28;20197;-54
2021/01/31 00:26:53;;;;;;;9.13;8.30;;;4.70;99.90;;;;;;5035889;28;20402;-55
2021/01/31 00:29:18;;;;;;;9.77;8.87;;;4.90;99.90;;;;;;5018011;28;21012;-56
2021/01/31 00:31:48;;;;;;;8.43;7.63;;;5.00;99.90;;;;;;5035844;28;20618;-56
2021/01/31 00:34:16;;;;;;;10.03;9.10;;;5.00;99.90;;;;;;5036228;28;20170;-57
2021/01/31 00:36:43;;;;;;;8.90;8.10;;;5.00;99.90;;;;;;5036042;28;20394;-56
2021/01/31 00:39:09;;;;;;;9.00;8.10;;;5.00;99.90;;;;;;5035480;28;20448;-58
2021/01/31 00:41:35;;;;;;;8.93;8.10;;;5.30;99.90;;;;;;5035738;28;20850;-55
2021/01/31 00:44:01;;;;;;;8.83;8.03;;;5.20;99.90;;;;;;5036018;28;20175;-54
2021/01/31 00:46:31;;;;;;;8.00;7.30;;;5.40;99.90;;;;;;5035627;28;20425;-55
2021/01/31 00:48:56;;;;;;;8.30;7.50;;;5.30;99.90;;;;;;5035736;28;20940;-54
2021/01/31 00:51:22;;;;;;;9.90;9.00;;;5.30;99.90;;;;;;5035445;28;20576;-58
2021/01/31 00:53:48;;;;;;;8.33;7.57;;;5.20;99.90;;;;;;5035340;28;20586;-55
2021/01/31 00:56:13;;;;;;;8.13;7.43;;;5.40;99.90;;;;;;5035378;28;20586;-57
2021/01/31 00:58:39;;;;;;;8.97;8.17;;;5.30;99.90;;;;;;5035374;28;20406;-54
2021/01/31 01:01:04;;;;;;;10.60;9.63;;;5.30;99.90;;;;;;5035279;28;20195;-54
2021/01/31 01:03:30;;;;;;;8.53;7.73;;;5.40;99.90;;;;;;5035670;28;20258;-55
2021/01/31 01:05:55;;;;;;;8.37;7.60;;;5.30;99.90;;;;;;5035538;28;20186;-54
2021/01/31 01:08:21;;;;;;;9.30;8.50;;;5.20;99.90;;;;;;5034590;28;20175;-55
2021/01/31 01:10:47;;;;;;;8.30;7.60;;;5.20;99.90;;;;;;5037868;28;20286;-54
2021/01/31 01:13:13;;;;;;;7.67;6.93;;;5.30;99.90;;;;;;5035299;28;20179;-55
2021/01/31 01:15:38;;;;;;;8.53;7.73;;;5.10;99.90;;;;;;5035359;28;20250;-56
2021/01/31 01:18:04;;;;;;;8.80;8.00;;;5.00;99.90;;;;;;5035175;28;20406;-55
2021/01/31 01:20:30;;;;;;;9.10;8.27;;;5.00;99.90;;;;;;5034781;28;20199;-54
2021/01/31 01:22:55;;;;;;;8.90;8.10;;;5.20;99.90;;;;;;5034343;28;20171;-58
2021/01/31 01:25:22;;;;;;;8.87;7.97;;;5.20;99.90;;;;;;5034792;28;20233;-54
2021/01/31 01:27:48;;;;;;;9.20;7.40;;;5.30;99.90;;;;;;5035250;28;20186;-56
2021/01/31 01:30:17;;;;;;;8.90;8.10;;;5.30;99.90;;;;;;5034661;28;20418;-57
2021/01/31 01:32:43;;;;;;;10.07;9.17;;;5.30;99.90;;;;;;5035229;28;20191;-56
2021/01/31 01:35:09;;;;;;;10.23;9.33;;;5.40;99.90;;;;;;5035430;28;20410;-57
2021/01/31 01:37:35;;;;;;;9.33;8.50;;;5.30;99.90;;;;;;5034431;28;20525;-56
2021/01/31 01:40:04;;;;;;;9.90;9.00;;;5.30;99.90;;;;;;5034334;28;20430;-54
2021/01/31 01:42:31;;;;;;;9.43;8.57;;;5.40;99.90;;;;;;5034440;28;20814;-53
2021/01/31 01:44:56;;;;;;;9.83;8.93;;;5.40;99.90;;;;;;5034624;28;20421;-56
2021/01/31 01:47:25;;;;;;;9.57;8.77;;;5.30;99.90;;;;;;5034462;28;20899;-54
2021/01/31 01:49:56;;;;;;;9.03;8.23;;;5.20;99.90;;;;;;5034728;28;20179;-53
2021/01/31 01:52:26;;;;;;;9.00;8.10;;;5.30;99.90;;;;;;5034608;28;20453;-55
2021/01/31 01:55:07;;;;;;;9.90;9.00;;;5.20;99.90;;;;;;5034557;28;20457;-54
2021/01/31 01:57:50;;;;;;;8.43;7.63;;;5.00;99.90;;;;;;5034304;28;20383;-56
2021/01/31 02:00:17;;;;;;;8.77;7.90;;;5.00;99.90;;;;;;5034569;28;20521;-53
2021/01/31 02:02:58;;;;;;;9.17;8.27;;;5.10;99.90;;;;;;5034454;28;20414;-54
2021/01/31 02:05:25;;;;;;;9.97;9.07;;;5.00;99.90;;;;;;5034202;28;20451;-55
2021/01/31 02:07:50;;;;;;;10.10;9.20;;;4.80;99.90;;;;;;5033762;28;20402;-57
2021/01/31 02:10:19;;;;;;;9.47;8.67;;;5.00;99.90;;;;;;5033626;28;20953;-55
2021/01/31 02:12:44;;;;;;;9.93;8.97;;;4.80;99.90;;;;;;5033863;28;20276;-55
2021/01/31 02:15:13;;;;;;;9.20;8.40;;;4.60;99.90;;;;;;5034144;28;20434;-54
2021/01/31 02:18:06;;;;;;;9.83;8.83;;;4.70;99.90;;;;;;5034002;28;20168;-55
2021/01/31 02:20:59;;;;;;;10.80;9.73;;;4.50;99.90;;;;;;5033112;28;20442;-54
2021/01/31 02:23:46;;;;;;;9.10;8.20;;;4.40;99.90;;;;;;5033724;28;20383;-54
2021/01/31 02:26:19;;;;;;;9.70;8.80;;;4.50;99.90;;;;;;5034428;28;20382;-55
2021/01/31 02:28:51;;;;;;;9.77;8.80;;;4.70;99.90;;;;;;5034327;28;20426;-55
2021/01/31 02:31:25;;;;;;;11.13;10.03;;;4.80;99.90;;;;;;5033704;28;20825;-57
2021/01/31 02:33:58;;;;;;;9.80;8.90;;;4.70;99.90;;;;;;5034081;28;20890;-57
2021/01/31 02:36:37;;;;;;;9.67;8.77;;;4.50;99.90;;;;;;5033915;28;20398;-56
2021/01/31 02:39:29;;;;;;;9.77;8.87;;;4.60;99.90;;;;;;5034063;28;20386;-55
2021/01/31 02:42:16;;;;;;;9.83;8.93;;;4.60;99.90;;;;;;5023969;28;20501;-53
2021/01/31 02:44:58;;;;;;;9.60;8.60;;;4.60;99.90;;;;;;5033749;28;20382;-53
2021/01/31 02:47:25;;;;;;;9.73;8.80;;;4.60;99.90;;;;;;5034092;28;20390;-55
2021/01/31 02:50:01;;;;;;;9.30;8.50;;;4.60;99.90;;;;;;5033488;28;20497;-54
2021/01/31 02:52:42;;;;;;;10.10;8.90;;;4.70;99.90;;;;;;5033051;28;20972;-55
2021/01/31 02:55:10;;;;;;;11.43;10.43;;;4.40;99.90;;;;;;5033700;28;20394;-57
2021/01/31 02:57:41;;;;;;;10.67;9.67;;;4.50;99.90;;;;;;5033870;28;20928;-54
2021/01/31 03:00:12;;;;;;;10.27;9.27;;;4.60;99.90;;;;;;5033555;28;20504;-54
2021/01/31 03:03:12;;;;;;;9.93;9.13;;;4.70;99.90;;;;;;5033474;28;20464;-54
2021/01/31 03:05:45;;;;;;;10.87;9.80;;;4.70;99.90;;;;;;5033532;28;20413;-58
2021/01/31 03:08:29;;;;;;;10.17;9.27;;;4.60;99.90;;;;;;5035470;28;20412;-57
2021/01/31 03:10:57;;;;;;;11.00;9.00;;;4.80;99.90;;;;;;5033386;28;20462;-56
2021/01/31 03:13:25;;;;;;;9.40;8.50;;;5.00;99.90;;;;;;5033582;28;20744;-56
2021/01/31 03:15:58;;;;;;;10.83;9.77;;;4.70;99.90;;;;;;5033575;28;20441;-54
2021/01/31 03:18:32;;;;;;;11.30;10.20;;;4.70;99.90;;;;;;5033668;28;20504;-52
2021/01/31 03:21:04;;;;;;;10.00;9.10;;;4.90;99.90;;;;;;5032988;28;20468;-54
2021/01/31 03:23:47;;;;;;;10.77;9.77;;;5.10;99.90;;;;;;5032983;28;20401;-53
2021/01/31 03:26:38;;;;;;;10.60;9.60;;;5.30;99.90;;;;;;5033150;28;20949;-56
2021/01/31 03:29:04;;;;;;;9.93;9.00;;;5.30;99.90;;;;;;5033687;28;20481;-55
2021/01/31 03:31:34;;;;;;;10.10;9.10;;;5.10;99.90;;;;;;5033241;28;20549;-56
2021/01/31 03:34:12;;;;;;;9.23;8.23;;;4.90;99.90;;;;;;5037032;28;20221;-55
2021/01/31 03:36:45;;;;;;;11.10;10.10;;;4.90;99.90;;;;;;5037275;28;20404;-57
2021/01/31 03:39:11;;;;;;;9.60;8.70;;;4.90;99.90;;;;;;5036638;28;20780;-56
2021/01/31 03:41:38;;;;;;;11.50;10.40;;;4.90;99.90;;;;;;5036957;28;20425;-54
2021/01/31 03:44:03;;;;;;;12.57;11.27;;;4.60;99.90;;;;;;5037419;28;20498;-53
2021/01/31 03:47:06;;;;;;;9.43;7.93;;;4.70;99.90;;;;;;5036728;28;20931;-56
2021/01/31 03:49:38;;;;;;;10.00;9.03;;;4.90;99.90;;;;;;5020349;28;20191;-55
2021/01/31 03:52:04;;;;;;;9.80;8.80;;;4.70;99.90;;;;;;5037093;28;20507;-56
2021/01/31 03:54:30;;;;;;;9.73;8.73;;;4.70;99.90;;;;;;5036560;28;20406;-53
2021/01/31 03:57:03;;;;;;;9.50;8.63;;;4.70;99.90;;;;;;5036780;28;20493;-54
2021/01/31 03:59:35;;;;;;;10.60;9.50;;;4.60;99.90;;;;;;5036962;28;20394;-55
2021/01/31 04:02:03;;;;;;;10.73;9.73;;;4.70;99.90;;;;;;5036628;28;20422;-54
2021/01/31 04:04:40;;;;;;;10.10;9.10;;;4.70;99.90;;;;;;5036318;28;20406;-54
2021/01/31 04:07:07;;;;;;;10.07;9.07;;;4.90;99.90;;;;;;5036802;28;20492;-55
2021/01/31 04:09:37;;;;;;;10.90;9.87;;;4.70;99.90;;;;;;5036170;28;20421;-56
2021/01/31 04:12:09;;;;;;;9.27;8.40;;;4.60;99.90;;;;;;5036593;28;20973;-54
2021/01/31 04:14:59;;;;;;;11.00;10.00;;;4.30;99.90;;;;;;5037510;28;20868;-55
2021/01/31 04:17:25;;;;;;;10.70;9.70;;;4.20;99.90;;;;;;4995897;28;20450;-51
2021/01/31 04:19:51;;;;;;;11.63;10.43;;;4.10;99.90;;;;;;5036434;28;20910;-53
2021/01/31 04:22:17;;;;;;;12.57;11.20;;;4.30;99.90;;;;;;5036381;28;20410;-53
2021/01/31 04:24:42;;;;;;;11.47;10.37;;;4.60;99.90;;;;;;5036001;28;20171;-56
2021/01/31 04:27:08;;;;;;;11.20;10.13;;;4.60;99.90;;;;;;5036430;28;20695;-53
2021/01/31 04:29:35;;;;;;;12.57;11.10;;;4.80;99.90;;;;;;5019909;28;20182;-54
2021/01/31 04:32:01;;;;;;;10.93;9.93;;;4.90;99.90;;;;;;5022501;28;20207;-55
2021/01/31 04:34:28;;;;;;;9.87;8.87;;;4.70;99.90;;;;;;5021261;28;20413;-56
2021/01/31 04:36:53;;;;;;;11.73;10.53;;;4.60;99.90;;;;;;5016248;28;20490;-56
2021/01/31 04:39:19;;;;;;;11.50;10.40;;;4.60;99.90;;;;;;5015656;28;20550;-54
2021/01/31 04:41:44;;;;;;;10.40;9.40;;;4.60;99.90;;;;;;5015782;28;20794;-55
2021/01/31 04:44:14;;;;;;;13.13;11.77;;;4.50;99.90;;;;;;5015565;28;20182;-54
2021/01/31 04:46:47;;;;;;;11.93;10.73;;;4.50;99.90;;;;;;5016222;28;20180;-55
2021/01/31 04:49:49;;;;;;;11.37;10.23;;;4.60;99.90;;;;;;5016102;28;20415;-55
2021/01/31 04:52:54;;;;;;;12.03;10.83;;;4.70;99.90;;;;;;5015620;28;20461;-55
2021/01/31 04:55:32;;;;;;;11.30;10.20;;;4.80;99.90;;;;;;4991072;28;20465;-53
2021/01/31 04:58:22;;;;;;;11.30;10.17;;;4.80;99.90;;;;;;5017771;28;20402;-52
2021/01/31 05:00:55;;;;;;;13.20;11.20;;;4.80;99.90;;;;;;5035437;28;20442;-52
2021/01/31 05:03:23;;;;;;;12.17;9.93;;;4.60;99.90;;;;;;5036073;28;20386;-55
2021/01/31 05:06:08;;;;;;;11.87;10.67;;;4.70;99.90;;;;;;5035526;28;20398;-54
2021/01/31 05:08:33;;;;;;;11.30;10.20;;;4.90;99.90;;;;;;5034977;28;20404;-53
2021/01/31 05:11:09;;;;;;;12.27;9.70;;;4.80;99.90;;;;;;5035410;28;20465;-55
2021/01/31 05:13:53;;;;;;;11.33;10.27;;;4.90;99.90;;;;;;5037725;28;20160;-53
2021/01/31 05:16:19;;;;;;;13.03;11.70;;;4.80;99.90;;;;;;5035960;28;20467;-54
2021/01/31 05:18:48;;;;;;;10.40;9.40;;;4.90;99.90;;;;;;5035402;28;20415;-56
2021/01/31 05:21:18;;;;;;;13.10;11.33;;;4.80;99.90;;;;;;5035135;28;20218;-57
2021/01/31 05:23:59;;;;;;;12.27;10.90;;;4.90;99.90;;;;;;5034862;28;20406;-54
2021/01/31 05:26:25;;;;;;;11.80;10.67;;;5.10;99.90;;;;;;5035966;28;20428;-54
2021/01/31 05:28:58;;;;;;;11.27;10.17;;;5.20;99.90;;;;;;5035220;28;20414;-54
2021/01/31 05:31:28;;;;;;;12.33;11.03;;;5.20;99.90;;;;;;5034997;28;20465;-54
2021/01/31 05:33:57;;;;;;;12.10;11.00;;;5.30;99.90;;;;;;5034889;28;20440;-57
2021/01/31 05:36:26;;;;;;;12.50;11.20;;;5.30;99.90;;;;;;5034719;28;20902;-55
2021/01/31 05:38:52;;;;;;;10.93;9.93;;;5.50;99.90;;;;;;5034237;28;20414;-57
2021/01/31 05:41:46;;;;;;;11.17;10.07;;;5.50;99.90;;;;;;5035078;28;20437;-54
2021/01/31 05:44:15;;;;;;;11.90;10.70;;;5.50;99.90;;;;;;5035034;28;20409;-54
2021/01/31 05:46:47;;;;;;;10.77;9.77;;;5.50;99.90;;;;;;5034703;28;20442;-55
2021/01/31 05:49:32;;;;;;;12.27;11.00;;;5.40;99.90;;;;;;5034508;28;20402;-57
2021/01/31 05:51:59;;;;;;;12.10;10.90;;;5.20;99.90;;;;;;5034464;28;20457;-54
2021/01/31 05:54:36;;;;;;;12.00;10.70;;;5.00;99.90;;;;;;5033840;28;20406;-56
2021/01/31 05:57:03;;;;;;;10.70;9.60;;;4.90;99.90;;;;;;5034374;28;20785;-55
2021/01/31 05:59:41;;;;;;;12.83;11.43;;;4.90;99.90;;;;;;5034090;28;20418;-55
2021/01/31 06:02:08;;;;;;;10.60;9.60;;;5.10;99.90;;;;;;5034290;28;20417;-52
2021/01/31 06:04:34;;;;;;;11.50;10.40;;;5.30;99.90;;;;;;5034504;28;20413;-55
2021/01/31 06:07:09;;;;;;;13.20;11.80;;;5.30;99.90;;;;;;5034169;28;20948;-57
2021/01/31 06:09:42;;;;;;;12.30;11.10;;;5.10;99.90;;;;;;5033887;28;20398;-56
2021/01/31 06:12:21;;;;;;;10.83;9.83;;;5.20;99.90;;;;;;5016443;28;20818;-54
2021/01/31 06:15:17;;;;;;;12.27;10.97;;;5.20;99.90;;;;;;5033361;28;20487;-54
2021/01/31 06:17:53;;;;;;;11.60;10.50;;;5.20;99.90;;;;;;5033895;28;20383;-55
2021/01/31 06:20:29;;;;;;;11.23;10.10;;;5.10;99.90;;;;;;5033736;28;20447;-56
2021/01/31 06:22:55;;;;;;;11.33;10.27;;;5.00;99.90;;;;;;5033750;28;20400;-57
2021/01/31 06:25:27;;;;;;;11.07;10.03;;;5.00;99.90;;;;;;5033216;28;20406;-57
2021/01/31 06:28:11;;;;;;;11.43;10.23;;;5.00;99.90;;;;;;5034340;28;20225;-54
2021/01/31 06:31:01;;;;;;;11.40;10.30;;;4.90;99.90;;;;;;5034680;28;20517;-55
2021/01/31 06:33:27;;;;;;;12.00;10.37;;;4.90;99.90;;;;;;5034645;28;20379;-51
2021/01/31 06:36:08;;;;;;;11.30;10.20;;;4.70;99.90;;;;;;5034260;28;20409;-52
2021/01/31 06:39:21;;;;;;;11.93;10.60;;;4.70;99.90;;;;;;5033260;28;20147;-53
2021/01/31 06:42:01;;;;;;;12.20;11.00;;;4.90;99.90;;;;;;5026470;28;20472;-57
2021/01/31 06:44:42;;;;;;;11.73;10.53;;;4.90;99.90;;;;;;5034375;28;20398;-57
2021/01/31 06:47:28;;;;;;;11.80;10.60;;;5.10;99.90;;;;;;5034502;28;20390;-57
2021/01/31 06:49:54;;;;;;;11.73;10.60;;;5.10;99.90;;;;;;5034511;28;20743;-57
2021/01/31 06:52:25;;;;;;;11.93;10.83;;;5.20;99.90;;;;;;5034683;28;20441;-51
2021/01/31 06:55:26;;;;;;;12.00;9.83;;;5.30;99.90;;;;;;5034078;28;20245;-55
2021/01/31 06:58:22;;;;;;;14.07;12.63;;;4.90;99.90;;;;;;5033476;28;20370;-57
2021/01/31 07:01:03;;;;;;;14.10;12.60;;;4.80;99.90;;;;;;5033117;28;20409;-54
2021/01/31 07:03:49;;;;;;;13.00;11.73;;;4.80;99.90;;;;;;5033387;28;20390;-54
2021/01/31 07:06:34;;;;;;;12.47;11.10;;;4.80;99.90;;;;;;5034265;28;20465;-54
2021/01/31 07:09:09;;;;;;;13.67;12.27;;;4.90;99.90;;;;;;5037280;28;20398;-57
2021/01/31 07:11:44;;;;;;;13.27;11.90;;;4.90;99.90;;;;;;5039637;28;20460;-56
2021/01/31 07:14:33;;;;;;;11.60;10.50;;;5.10;99.90;;;;;;5038067;28;20401;-57
2021/01/31 07:17:09;;;;;;;11.53;10.20;;;5.10;99.90;;;;;;5037252;28;20489;-54
2021/01/31 07:19:39;;;;;;;10.77;9.67;;;5.00;99.90;;;;;;5019540;28;20429;-57
2021/01/31 07:22:24;;;;;;;10.90;9.80;;;4.90;99.90;;;;;;5037544;28;20425;-55
2021/01/31 07:25:00;;;;;;;11.90;10.20;;;5.00;99.90;;;;;;5029862;28;20526;-54
2021/01/31 07:27:36;;;;;;;13.00;11.70;;;4.80;99.90;;;;;;5035270;28;20405;-54
2021/01/31 07:30:31;;;;;;;11.93;10.17;;;4.90;99.90;;;;;;5037037;28;20425;-54
2021/01/31 07:33:00;;;;;;;11.70;10.40;;;4.80;99.90;;;;;;5037232;28;20452;-56
2021/01/31 07:35:36;;;;;;;11.80;10.70;;;4.90;99.90;;;;;;5036921;28;20924;-56
2021/01/31 07:38:13;;;;;;;12.33;11.20;;;5.00;99.90;;;;;;5036652;28;20452;-55
2021/01/31 07:40:40;;;;;;;12.20;11.00;;;5.20;99.90;;;;;;5036833;28;20429;-53
2021/01/31 07:43:10;;;;;;;11.07;9.97;;;5.30;99.90;;;;;;5036756;28;20410;-57
2021/01/31 07:45:35;;;;;;;11.63;10.50;;;5.30;99.90;;;;;;5036983;28;20409;-57
2021/01/31 07:48:39;;;;;;;11.70;10.60;;;5.20;99.90;;;;;;5037015;28;20799;-58
2021/01/31 07:51:07;;;;;;;11.53;10.43;;;5.30;99.90;;;;;;5036876;28;20214;-58
2021/01/31 07:53:39;;;;;;;10.77;9.87;;;5.30;99.90;;;;;;5036175;28;20460;-57
2021/01/31 07:56:26;;;;;;;11.90;10.67;;;5.00;99.90;;;;;;5036764;28;20452;-55
2021/01/31 07:59:10;;;;;;;13.83;11.70;;;5.00;99.90;;;;;;5036492;28;20393;-55
2021/01/31 08:01:42;;;;;;;11.63;10.53;;;4.80;99.90;;;;;;5036628;28;20437;-54
2021/01/31 08:04:16;;;;;;;12.70;11.40;;;4.90;99.90;;;;;;5036619;28;20485;-56
2021/01/31 08:06:48;;;;;;;11.93;10.53;;;5.00;99.90;;;;;;5036482;28;20402;-57
2021/01/31 08:09:26;;;;;;;11.43;10.33;;;5.00;99.90;;;;;;5036243;28;20464;-53
2021/01/31 08:12:04;;;;;;;11.27;10.17;;;5.30;99.90;;;;;;5036233;28;20459;-54
2021/01/31 08:15:03;;;;;;;12.20;10.90;;;5.30;99.90;;;;;;5036566;28;20382;-56
2021/01/31 08:17:56;;;;;;;11.13;10.07;;;5.30;99.90;;;;;;5035450;28;20444;-56
2021/01/31 08:20:27;;;;;;;11.30;10.20;;;5.50;99.90;;;;;;5036192;28;20445;-58
2021/01/31 08:22:59;;;;;;;11.93;10.73;;;5.60;99.90;;;;;;5035897;28;20432;-55
2021/01/31 08:25:30;;;;;;;12.97;11.67;;;5.50;99.90;;;;;;5035022;28;20406;-57
2021/01/31 08:28:01;;;;;;;13.13;11.80;;;5.30;99.90;;;;;;5036122;28;20417;-58
2021/01/31 08:30:34;;;;;;;11.93;10.83;;;5.30;99.90;;;;;;5036005;28;20792;-57
2021/01/31 08:33:06;;;;;;;13.67;12.37;;;5.40;99.90;;;;;;5034816;28;22135;-58
2021/01/31 08:35:39;;;;;;;12.63;10.93;;;5.40;99.90;;;;;;5036015;28;20379;-58
2021/01/31 08:38:34;;;;;;;13.10;11.27;;;5.40;99.90;;;;;;5035691;28;20408;-56
2021/01/31 08:41:03;;;;;;;11.73;10.50;;;5.50;99.90;;;;;;5007269;28;20433;-58
2021/01/31 08:43:50;;;;;;;11.33;10.23;;;5.30;99.90;;;;;;5035849;28;20456;-57
2021/01/31 08:46:24;;;;;;;12.43;11.13;;;5.50;99.90;;;;;;5035588;28;20879;-60
2021/01/31 08:49:09;;;;;;;10.17;9.20;;;5.60;99.90;;;;;;5035218;28;20398;-55
2021/01/31 08:51:37;;;;;;;10.83;9.83;;;5.70;99.90;;;;;;5035315;28;20971;-57
2021/01/31 08:54:08;;;;;;;10.87;9.73;;;5.70;99.90;;;;;;5035202;28;20895;-54
2021/01/31 08:56:44;;;;;;;11.37;10.27;;;5.80;99.90;;;;;;5035649;28;20406;-56
2021/01/31 08:59:24;;;;;;;11.90;10.87;;;5.90;99.90;;;;;;5035510;28;20382;-59
2021/01/31 09:02:14;;;;;;;10.40;9.40;;;5.90;99.90;;;;;;5035224;28;20927;-58
2021/01/31 09:05:00;;;;;;;10.40;9.30;;;5.70;99.90;;;;;;5034836;28;20467;-58
2021/01/31 09:07:38;;;;;;;11.33;10.23;;;5.50;99.90;;;;;;5035055;28;20786;-56
2021/01/31 09:10:35;;;;;;;10.63;9.63;;;5.60;99.90;;;;;;5035135;28;20449;-55
2021/01/31 09:13:24;;;;;;;12.23;11.13;;;5.70;99.90;;;;;;5026607;28;20458;-58
2021/01/31 09:15:49;;;;;;;13.20;10.27;;;6.10;99.90;;;;;;5035292;28;20386;-56
2021/01/31 09:18:23;;;;;;;11.03;9.93;;;6.00;99.90;;;;;;5034724;28;20444;-54
2021/01/31 09:20:52;;;;;;;11.07;10.00;;;5.90;99.90;;;;;;5034518;28;20203;-58
2021/01/31 09:23:27;;;;;;;10.70;9.70;;;5.90;99.90;;;;;;5034641;28;20911;-55
2021/01/31 09:25:53;;;;;;;30.60;28.20;;;6.00;99.90;;;;;;5034940;28;20387;-54
2021/01/31 09:28:24;;;;;;;11.83;10.20;;;6.20;99.90;;;;;;5033844;28;20424;-54
2021/01/31 09:30:56;;;;;;;11.17;10.07;;;6.00;99.90;;;;;;5034999;28;20502;-57
2021/01/31 09:33:30;;;;;;;10.60;9.60;;;5.60;99.90;;;;;;5034650;28;20489;-56
2021/01/31 09:35:56;;;;;;;10.00;9.10;;;5.30;99.90;;;;;;5034421;28;20504;-58
2021/01/31 09:38:28;;;;;;;11.93;10.80;;;5.20;99.90;;;;;;5034095;28;20898;-58
2021/01/31 09:40:56;;;;;;;11.13;9.93;;;5.50;99.90;;;;;;5030526;28;20183;-58
2021/01/31 09:43:26;;;;;;;10.83;9.83;;;5.60;99.90;;;;;;5025314;28;20402;-60
2021/01/31 09:45:55;;;;;;;10.17;9.13;;;5.70;99.90;;;;;;5034550;28;20531;-58
2021/01/31 09:48:23;;;;;;;11.77;10.63;;;5.80;99.90;;;;;;5034832;28;20421;-61
2021/01/31 09:50:54;;;;;;;11.27;10.20;;;5.60;99.90;;;;;;5034349;28;21000;-60
2021/01/31 09:53:28;;;;;;;11.50;10.40;;;5.80;99.90;;;;;;5034833;28;20418;-59
2021/01/31 09:55:54;;;;;;;11.87;10.70;;;5.80;99.90;;;;;;5034197;28;20906;-59
2021/01/31 09:58:34;;;;;;;12.50;11.40;;;5.90;99.90;;;;;;5034068;28;20413;-61
2021/01/31 10:01:23;;;;;;;10.47;9.50;;;5.80;99.90;;;;;;5034283;28;20195;-59
2021/01/31 10:03:55;;;;;;;10.37;9.37;;;5.70;99.90;;;;;;5034735;28;20409;-60
2021/01/31 10:06:20;;;;;;;12.10;10.93;;;5.80;99.90;;;;;;5033946;28;20426;-59
2021/01/31 10:08:50;;;;;;;11.60;10.50;;;6.00;99.90;;;;;;5034097;28;20437;-59
2021/01/31 10:11:38;;;;;;;12.57;11.37;;;6.20;99.90;;;;;;5033616;28;20195;-57
2021/01/31 10:14:07;;;;;;;10.93;9.90;;;6.30;99.90;;;;;;5033758;28;20486;-60
2021/01/31 10:16:35;;;;;;;10.97;9.90;;;6.30;99.90;;;;;;5034084;28;20460;-55
2021/01/31 10:19:12;;;;;;;11.60;10.50;;;6.60;99.90;;;;;;5033954;28;20409;-60
2021/01/31 10:21:45;;;;;;;11.50;10.40;;;6.50;99.90;;;;;;5033738;28;20488;-58
2021/01/31 10:24:17;;;;;;;12.23;10.90;;;6.60;99.90;;;;;;5033445;28;20395;-59
2021/01/31 10:26:43;;;;;;;11.90;10.70;;;6.70;99.90;;;;;;5033755;28;20402;-59
2021/01/31 10:29:19;;;;;;;12.00;10.43;;;6.70;99.90;;;;;;5033485;28;20781;-59
2021/01/31 10:31:44;;;;;;;10.70;9.70;;;6.90;99.90;;;;;;5033862;28;20821;-59
2021/01/31 10:34:10;;;;;;;12.30;11.10;;;6.70;99.90;;;;;;5033426;28;20444;-59
2021/01/31 10:36:41;;;;;;;13.63;12.33;;;6.70;99.90;;;;;;5033363;28;20170;-61
2021/01/31 10:39:10;;;;;;;12.57;11.40;;;6.70;99.90;;;;;;5033188;28;20440;-58
2021/01/31 10:41:36;;;;;;;12.47;11.27;;;6.90;99.90;;;;;;5032845;28;20887;-60
2021/01/31 10:44:19;;;;;;;11.27;10.17;;;7.30;99.90;;;;;;5033137;28;20460;-61
2021/01/31 10:46:45;;;;;;;12.17;11.07;;;7.50;99.90;;;;;;5033479;28;20756;-60
2021/01/31 10:49:11;;;;;;;12.07;10.87;;;7.30;99.90;;;;;;5033810;28;20414;-61
2021/01/31 10:51:38;;;;;;;11.40;10.20;;;6.80;99.90;;;;;;5033103;28;20524;-60
2021/01/31 10:54:04;;;;;;;13.03;11.73;;;6.70;99.90;;;;;;5032997;28;20171;-59
2021/01/31 10:56:31;;;;;;;13.93;12.43;;;6.80;99.90;;;;;;5033368;28;20426;-57
2021/01/31 10:58:56;;;;;;;13.50;12.30;;;6.90;99.90;;;;;;5033080;28;20425;-60
2021/01/31 11:01:23;;;;;;;12.70;11.50;;;7.00;99.90;;;;;;5032929;28;20439;-61
2021/01/31 11:03:49;;;;;;;12.53;11.33;;;6.60;99.90;;;;;;5033289;28;20175;-60
2021/01/31 11:06:15;;;;;;;13.03;11.50;;;6.50;99.90;;;;;;5033253;28;20814;-60
2021/01/31 11:08:41;;;;;;;13.80;12.00;;;6.50;99.90;;;;;;5032732;28;20433;-60
2021/01/31 11:11:07;;;;;;;12.53;11.23;;;6.70;99.90;;;;;;5032783;28;20437;-58
2021/01/31 11:13:32;;;;;;;10.77;9.77;;;6.80;99.90;;;;;;5031920;28;20398;-60
2021/01/31 11:15:58;;;;;;;10.47;9.50;;;6.90;99.90;;;;;;5032899;28;20190;-58
2021/01/31 11:18:24;;;;;;;11.90;10.67;;;6.80;99.90;;;;;;5033189;28;20164;-60
2021/01/31 11:20:50;;;;;;;10.80;9.77;;;7.00;99.90;;;;;;5034849;28;20256;-59
2021/01/31 11:23:16;;;;;;;11.17;10.07;;;6.90;99.90;;;;;;5032982;28;20414;-60
2021/01/31 11:25:42;;;;;;;11.60;10.40;;;6.90;99.90;;;;;;5032564;28;20241;-60
2021/01/31 11:28:08;;;;;;;12.13;10.90;;;6.90;99.90;;;;;;5029465;28;20504;-59
2021/01/31 11:30:33;;;;;;;14.43;11.83;;;7.40;99.90;;;;;;5023981;28;20257;-60
2021/01/31 11:33:00;;;;;;;11.70;10.57;;;7.30;99.90;;;;;;5032969;28;20202;-59
2021/01/31 11:35:28;;;;;;;12.50;11.03;;;7.30;99.90;;;;;;5033107;28;20518;-60
2021/01/31 11:37:53;;;;;;;13.43;12.17;;;7.40;99.90;;;;;;5032639;28;20399;-60
2021/01/31 11:40:20;;;;;;;11.53;10.40;;;7.20;99.90;;;;;;5032334;28;20438;-58
2021/01/31 11:42:46;;;;;;;12.53;11.23;;;7.40;99.90;;;;;;5032651;28;20176;-61
2021/01/31 11:45:13;;;;;;;13.10;11.80;;;7.40;99.90;;;;;;5032693;28;20416;-59
2021/01/31 11:47:39;;;;;;;10.93;9.77;;;7.90;99.90;;;;;;5032847;28;20183;-56
2021/01/31 11:50:06;;;;;;;11.37;10.17;;;7.90;99.90;;;;;;5032769;28;20439;-59
2021/01/31 11:52:32;;;;;;;11.73;10.63;;;7.70;99.90;;;;;;5032551;28;20539;-59
2021/01/31 11:54:58;;;;;;;10.93;9.90;;;7.50;99.90;;;;;;5035542;28;20925;-60
2021/01/31 11:57:23;;;;;;;11.40;10.30;;;7.60;99.90;;;;;;5036355;28;20438;-61
2021/01/31 11:59:49;;;;;;;11.10;9.90;;;7.50;99.90;;;;;;5036130;28;20180;-58
2021/01/31 12:02:14;;;;;;;10.47;9.57;;;7.20;99.90;;;;;;5036585;28;20255;-58
2021/01/31 12:04:40;;;;;;;13.60;12.30;;;7.00;99.90;;;;;;5036404;28;20701;-58
2021/01/31 12:07:07;;;;;;;11.63;10.43;;;7.20;99.90;;;;;;5036218;28;20261;-60
2021/01/31 12:09:33;;;;;;;11.77;10.57;;;7.30;99.90;;;;;;5035750;28;20214;-59
2021/01/31 12:11:59;;;;;;;11.90;10.37;;;7.10;99.90;;;;;;5035935;28;20979;-59
2021/01/31 12:14:25;;;;;;;12.37;11.17;;;6.90;99.90;;;;;;5036324;28;20437;-60
2021/01/31 12:16:51;;;;;;;12.20;11.00;;;6.80;99.90;;;;;;5036198;28;20168;-60
2021/01/31 12:19:16;;;;;;;11.93;10.60;;;6.90;99.90;;;;;;5035783;28;20947;-59
2021/01/31 12:21:42;;;;;;;11.67;10.53;;;7.00;99.90;;;;;;5035854;28;20434;-53
2021/01/31 12:24:08;;;;;;;11.40;10.30;;;7.20;99.90;;;;;;5035281;28;20171;-55
2021/01/31 12:26:34;;;;;;;11.33;10.23;;;7.10;99.90;;;;;;5035242;28;20233;-60
2021/01/31 12:28:59;;;;;;;15.20;12.37;;;7.20;99.90;;;;;;5035660;28;20179;-59
2021/01/31 12:31:26;;;;;;;11.07;9.97;;;7.20;99.90;;;;;;5036172;28;20730;-60
2021/01/31 12:33:52;;;;;;;11.53;10.33;;;7.00;99.90;;;;;;5035591;28;20168;-61
2021/01/31 12:36:18;;;;;;;10.57;9.50;;;7.00;99.90;;;;;;5035656;28;20448;-60
2021/01/31 12:38:44;;;;;;;13.13;10.23;;;7.30;99.90;;;;;;5035780;28;20406;-59
2021/01/31 12:41:09;;;;;;;11.57;10.47;;;7.50;99.90;;;;;;5034982;28;20422;-59
2021/01/31 12:43:35;;;;;;;11.23;10.10;;;7.60;99.90;;;;;;5035838;28;20179;-57
2021/01/31 12:46:00;;;;;;;10.27;9.17;;;7.70;99.90;;;;;;5035521;28;20184;-57
2021/01/31 12:48:26;;;;;;;11.73;10.53;;;7.50;99.90;;;;;;5035775;28;20195;-60
2021/01/31 12:50:52;;;;;;;10.87;9.73;;;7.70;99.90;;;;;;5035473;28;20191;-57
2021/01/31 12:53:17;;;;;;;11.63;10.57;;;7.90;99.90;;;;;;5035881;28;20673;-59
2021/01/31 12:55:43;;;;;;;10.27;9.17;;;8.00;99.90;;;;;;5034975;28;20629;-58
2021/01/31 12:58:09;;;;;;;10.80;9.70;;;8.00;99.90;;;;;;5035173;28;20690;-56
2021/01/31 13:00:34;;;;;;;11.73;10.53;;;7.80;99.90;;;;;;5035280;28;20223;-60
2021/01/31 13:03:00;;;;;;;13.07;11.77;;;7.60;99.90;;;;;;5035110;28;20553;-57
2021/01/31 13:05:30;;;;;;;11.07;10.00;;;7.60;99.90;;;;;;5034684;28;20629;-61
2021/01/31 13:07:59;;;;;;;11.97;10.50;;;7.50;99.90;;;;;;5035311;28;20167;-60
2021/01/31 13:10:25;;;;;;;12.10;10.97;;;7.40;99.90;;;;;;5034839;28;20493;-60